createdAt,value
2019-02-21T00:00:26.008Z,65.31
2019-02-21T00:01:25.005Z,65.73
2019-02-21T00:03:24.980Z,65.31
2019-02-21T00:04:24.967Z,65.31
2019-02-21T00:05:25.949Z,65.42
2019-02-21T00:06:25.947Z,65.34
2019-02-21T00:07:25.932Z,65.31
2019-02-21T00:08:24.925Z,65.83
2019-02-21T00:09:25.917Z,65.42
2019-02-21T00:10:25.895Z,66.48
2019-02-21T00:11:24.893Z,66.04
2019-02-21T00:12:25.872Z,65.21
2019-02-21T00:13:25.873Z,66.35
2019-02-21T00:14:25.853Z,66.04
2019-02-21T00:15:24.879Z,65.97
2019-02-21T00:16:25.831Z,65.52
2019-02-21T00:17:24.819Z,66.24
2019-02-21T00:18:25.814Z,65.52
2019-02-21T00:19:25.799Z,65.42
2019-02-21T00:20:25.819Z,65.94
2019-02-21T00:21:25.775Z,66.14
2019-02-21T00:22:25.764Z,66.07
2019-02-21T00:23:25.774Z,65.83
2019-02-21T00:24:25.744Z,65.83
2019-02-21T00:25:25.739Z,66.35
2019-02-21T00:26:24.759Z,66.45
2019-02-21T00:27:25.709Z,65.73
2019-02-21T00:28:24.703Z,66.04
2019-02-21T00:29:25.691Z,66.14
2019-02-21T00:30:34.847Z,66.04
2019-02-21T00:31:25.713Z,66.04
2019-02-21T00:32:25.655Z,65.52
2019-02-21T00:33:24.649Z,66.24
2019-02-21T00:34:25.637Z,65.31
2019-02-21T00:35:25.627Z,65.18
2019-02-21T00:36:24.615Z,65.52
2019-02-21T00:37:25.633Z,65.49
2019-02-21T00:38:25.591Z,65.42
2019-02-21T00:39:25.593Z,65.80
2019-02-21T00:40:25.579Z,65.91
2019-02-21T00:41:25.555Z,65.70
2019-02-21T00:42:24.549Z,65.91
2019-02-21T00:43:25.534Z,65.80
2019-02-21T00:44:25.525Z,65.59
2019-02-21T00:45:25.539Z,65.39
2019-02-21T00:46:25.507Z,65.08
2019-02-21T00:47:25.489Z,65.39
2019-02-21T00:48:25.477Z,65.28
2019-02-21T00:49:24.480Z,65.18
2019-02-21T00:50:26.157Z,65.39
2019-02-21T00:51:24.449Z,65.08
2019-02-21T00:52:25.438Z,65.08
2019-02-21T00:53:25.427Z,65.08
2019-02-21T00:54:25.437Z,64.46
2019-02-21T00:55:27.816Z,64.64
2019-02-21T00:56:25.394Z,64.64
2019-02-21T00:57:24.385Z,63.95
2019-02-21T00:58:24.375Z,64.53
2019-02-21T00:59:25.366Z,63.81
2019-02-21T01:00:24.385Z,65.05
2019-02-21T01:01:25.371Z,64.74
2019-02-21T01:02:24.330Z,64.95
2019-02-21T01:03:25.313Z,64.22
2019-02-21T01:04:24.303Z,64.53
2019-02-21T01:05:25.301Z,64.53
2019-02-21T01:06:25.287Z,64.43
2019-02-21T01:07:24.280Z,64.32
2019-02-21T01:08:25.262Z,64.22
2019-02-21T01:09:25.250Z,64.32
2019-02-21T01:10:24.243Z,64.53
2019-02-21T01:11:25.250Z,63.81
2019-02-21T01:12:25.217Z,64.40
2019-02-21T01:13:25.206Z,64.02
2019-02-21T01:15:24.186Z,64.32
2019-02-21T01:16:24.203Z,64.02
2019-02-21T01:17:24.165Z,64.53
2019-02-21T01:18:25.163Z,65.05
2019-02-21T01:19:25.171Z,65.05
2019-02-21T01:20:25.133Z,65.15
2019-02-21T01:21:24.150Z,65.05
2019-02-21T01:22:25.109Z,64.74
2019-02-21T01:23:25.097Z,65.15
2019-02-21T01:24:25.093Z,65.05
2019-02-21T01:25:25.077Z,65.05
2019-02-21T01:26:25.065Z,65.98
2019-02-21T01:27:25.075Z,65.91
2019-02-21T01:28:24.040Z,65.15
2019-02-21T01:29:25.036Z,64.98
2019-02-21T01:30:24.019Z,65.18
2019-02-21T01:31:25.042Z,65.28
2019-02-21T01:32:24.000Z,65.59
2019-02-21T01:33:24.987Z,65.39
2019-02-21T01:34:24.989Z,65.42
2019-02-21T01:35:24.964Z,66.14
2019-02-21T01:36:23.986Z,66.14
2019-02-21T01:37:23.943Z,65.83
2019-02-21T01:38:24.935Z,65.62
2019-02-21T01:39:23.924Z,65.52
2019-02-21T01:40:24.910Z,65.31
2019-02-21T01:41:23.901Z,65.52
2019-02-21T01:42:23.924Z,65.59
2019-02-21T01:43:23.876Z,66.01
2019-02-21T01:44:24.860Z,65.59
2019-02-21T01:45:26.640Z,65.59
2019-02-21T01:46:24.855Z,65.91
2019-02-21T01:47:23.833Z,65.39
2019-02-21T01:48:23.864Z,65.73
2019-02-21T01:49:23.808Z,65.80
2019-02-21T01:50:24.805Z,65.83
2019-02-21T01:51:23.799Z,65.28
2019-02-21T01:52:24.788Z,65.39
2019-02-21T01:53:24.796Z,65.73
2019-02-21T01:54:24.750Z,65.39
2019-02-21T01:55:24.747Z,65.42
2019-02-21T01:56:24.743Z,64.87
2019-02-21T01:57:23.732Z,64.80
2019-02-21T01:58:23.724Z,64.36
2019-02-21T01:59:24.728Z,65.28
2019-02-21T02:00:24.690Z,65.91
2019-02-21T02:01:24.679Z,65.91
2019-02-21T02:02:24.671Z,65.39
2019-02-21T02:03:24.659Z,65.52
2019-02-21T02:04:24.687Z,65.52
2019-02-21T02:05:24.636Z,65.49
2019-02-21T02:06:24.623Z,65.31
2019-02-21T02:07:24.612Z,64.25
2019-02-21T02:08:24.602Z,65.18
2019-02-21T02:09:23.626Z,65.59
2019-02-21T02:10:24.589Z,65.73
2019-02-21T02:11:23.572Z,65.52
2019-02-21T02:12:24.558Z,66.11
2019-02-21T02:13:25.112Z,65.73
2019-02-21T02:14:23.550Z,65.59
2019-02-21T02:15:24.573Z,65.21
2019-02-21T02:16:24.518Z,65.52
2019-02-21T02:17:24.509Z,66.04
2019-02-21T02:18:24.516Z,66.14
2019-02-21T02:19:24.501Z,66.04
2019-02-21T02:20:23.478Z,66.04
2019-02-21T02:21:24.492Z,65.52
2019-02-21T02:22:24.453Z,66.04
2019-02-21T02:23:23.442Z,65.52
2019-02-21T02:24:23.450Z,65.14
2019-02-21T02:25:24.418Z,65.24
2019-02-21T02:26:23.410Z,66.27
2019-02-21T02:27:23.399Z,65.97
2019-02-21T02:28:24.386Z,66.58
2019-02-21T02:29:24.397Z,66.38
2019-02-21T02:30:24.371Z,66.51
2019-02-21T02:31:24.367Z,66.72
2019-02-21T02:32:24.341Z,66.69
2019-02-21T02:33:24.332Z,67.21
2019-02-21T02:34:25.130Z,66.58
2019-02-21T02:35:23.315Z,67.10
2019-02-21T02:36:23.304Z,67.13
2019-02-21T02:37:23.288Z,66.72
2019-02-21T02:38:24.287Z,67.75
2019-02-21T02:39:23.276Z,66.00
2019-02-21T02:41:23.287Z,67.44
2019-02-21T02:42:24.233Z,67.34
2019-02-21T02:43:23.220Z,66.82
2019-02-21T02:44:24.210Z,67.00
2019-02-21T02:45:23.196Z,67.13
2019-02-21T02:46:24.225Z,66.79
2019-02-21T02:47:24.192Z,66.38
2019-02-21T02:48:23.167Z,65.89
2019-02-21T02:49:24.161Z,66.72
2019-02-21T02:50:24.144Z,67.34
2019-02-21T02:51:24.132Z,67.13
2019-02-21T02:52:24.145Z,67.03
2019-02-21T02:53:23.122Z,67.03
2019-02-21T02:54:24.173Z,66.72
2019-02-21T02:55:24.096Z,66.61
2019-02-21T02:56:24.074Z,67.13
2019-02-21T02:57:24.064Z,66.82
2019-02-21T02:58:24.066Z,66.61
2019-02-21T02:59:23.085Z,66.72
2019-02-21T03:00:24.622Z,67.75
2019-02-21T03:01:34.404Z,67.13
2019-02-21T03:02:24.010Z,67.34
2019-02-21T03:03:23.033Z,66.93
2019-02-21T03:04:23.999Z,67.24
2019-02-21T03:05:22.986Z,67.03
2019-02-21T03:06:23.972Z,67.24
2019-02-21T03:07:23.962Z,66.72
2019-02-21T03:08:22.959Z,66.10
2019-02-21T03:09:23.958Z,66.61
2019-02-21T03:10:23.926Z,67.13
2019-02-21T03:11:22.917Z,66.30
2019-02-21T03:12:23.898Z,66.20
2019-02-21T03:13:23.893Z,67.24
2019-02-21T03:14:23.900Z,66.51
2019-02-21T03:15:22.875Z,67.54
2019-02-21T03:16:23.865Z,66.51
2019-02-21T03:17:23.864Z,66.41
2019-02-21T03:18:23.842Z,66.20
2019-02-21T03:19:23.825Z,66.82
2019-02-21T03:20:23.844Z,66.48
2019-02-21T03:21:23.800Z,66.58
2019-02-21T03:22:22.790Z,66.48
2019-02-21T03:23:22.780Z,67.30
2019-02-21T03:24:23.810Z,66.41
2019-02-21T03:25:23.757Z,66.69
2019-02-21T03:26:23.786Z,67.10
2019-02-21T03:27:23.729Z,67.13
2019-02-21T03:28:23.747Z,67.00
2019-02-21T03:29:23.726Z,66.93
2019-02-21T03:30:23.715Z,66.72
2019-02-21T03:31:23.694Z,67.34
2019-02-21T03:32:23.679Z,66.72
2019-02-21T03:33:22.693Z,67.03
2019-02-21T03:34:22.663Z,66.72
2019-02-21T03:35:22.653Z,66.51
2019-02-21T03:36:23.641Z,67.13
2019-02-21T03:37:22.638Z,67.24
2019-02-21T03:38:22.663Z,67.13
2019-02-21T03:39:23.667Z,67.34
2019-02-21T03:40:23.603Z,67.75
2019-02-21T03:41:22.583Z,67.34
2019-02-21T03:42:23.596Z,67.96
2019-02-21T03:43:22.566Z,67.13
2019-02-21T03:44:22.558Z,67.37
2019-02-21T03:45:23.536Z,67.37
2019-02-21T03:46:22.536Z,67.37
2019-02-21T03:47:23.543Z,67.27
2019-02-21T03:48:23.502Z,67.03
2019-02-21T03:49:26.108Z,67.03
2019-02-21T03:50:23.486Z,66.72
2019-02-21T03:51:23.473Z,66.51
2019-02-21T03:52:22.463Z,67.85
2019-02-21T03:53:23.449Z,67.13
2019-02-21T03:54:23.435Z,67.03
2019-02-21T03:55:23.456Z,67.85
2019-02-21T03:56:23.414Z,67.85
2019-02-21T03:57:23.413Z,67.13
2019-02-21T03:58:23.451Z,67.75
2019-02-21T03:59:23.392Z,66.82
2019-02-21T04:00:23.369Z,67.37
2019-02-21T04:01:23.367Z,66.51
2019-02-21T04:02:22.379Z,66.54
2019-02-21T04:03:23.334Z,66.54
2019-02-21T04:04:23.336Z,67.37
2019-02-21T04:05:22.318Z,67.16
2019-02-21T04:06:23.299Z,67.27
2019-02-21T04:07:23.324Z,67.19
2019-02-21T04:08:23.280Z,67.16
2019-02-21T04:09:23.297Z,67.58
2019-02-21T04:10:26.094Z,68.12
2019-02-21T04:11:23.251Z,68.12
2019-02-21T04:12:23.235Z,68.64
2019-02-21T04:13:22.232Z,68.30
2019-02-21T04:14:23.219Z,68.09
2019-02-21T04:15:23.254Z,67.99
2019-02-21T04:16:22.195Z,67.99
2019-02-21T04:17:23.187Z,67.68
2019-02-21T04:18:23.175Z,67.78
2019-02-21T04:19:23.192Z,67.99
2019-02-21T04:20:22.170Z,68.40
2019-02-21T04:21:23.134Z,68.09
2019-02-21T04:22:23.142Z,67.68
2019-02-21T04:23:22.129Z,68.51
2019-02-21T04:24:23.110Z,68.30
2019-02-21T04:25:23.130Z,68.40
2019-02-21T04:26:22.087Z,68.19
2019-02-21T04:27:23.072Z,67.78
2019-02-21T04:28:23.138Z,67.47
2019-02-21T04:29:23.052Z,67.88
2019-02-21T04:30:23.047Z,67.88
2019-02-21T04:31:23.031Z,68.02
2019-02-21T04:32:23.026Z,67.91
2019-02-21T04:33:23.012Z,68.51
2019-02-21T04:34:23.117Z,68.09
2019-02-21T04:35:22.998Z,68.09
2019-02-21T04:36:23.423Z,67.99
2019-02-21T04:37:21.967Z,68.30
2019-02-21T04:38:22.958Z,68.09
2019-02-21T04:39:22.944Z,68.51
2019-02-21T04:40:22.942Z,68.09
2019-02-21T04:41:22.930Z,67.78
2019-02-21T04:42:21.909Z,67.78
2019-02-21T04:43:24.592Z,67.16
2019-02-21T04:44:21.891Z,67.16
2019-02-21T04:45:22.879Z,67.27
2019-02-21T04:46:22.895Z,66.54
2019-02-21T04:47:22.854Z,66.54
2019-02-21T04:48:22.851Z,66.85
2019-02-21T04:50:21.817Z,67.78
2019-02-21T04:51:22.829Z,67.88
2019-02-21T04:52:22.860Z,67.68
2019-02-21T04:53:22.789Z,67.75
2019-02-21T04:54:22.791Z,67.85
2019-02-21T04:55:22.769Z,67.54
2019-02-21T04:56:22.757Z,66.61
2019-02-21T04:57:22.739Z,67.68
2019-02-21T04:58:22.765Z,67.65
2019-02-21T04:59:21.726Z,67.96
2019-02-21T05:00:22.712Z,68.37
2019-02-21T05:01:22.716Z,68.40
2019-02-21T05:02:29.248Z,68.19
2019-02-21T05:03:22.685Z,68.71
2019-02-21T05:04:21.711Z,69.12
2019-02-21T05:05:22.653Z,68.61
2019-02-21T05:06:22.650Z,68.19
2019-02-21T05:07:22.585Z,68.61
2019-02-21T05:08:21.623Z,68.30
2019-02-21T05:09:22.645Z,67.99
2019-02-21T05:10:22.603Z,68.06
2019-02-21T05:12:21.579Z,67.96
2019-02-21T05:13:21.573Z,68.48
2019-02-21T05:14:21.583Z,67.96
2019-02-21T05:15:22.551Z,68.61
2019-02-21T05:16:22.537Z,68.61
2019-02-21T05:17:21.527Z,68.58
2019-02-21T05:18:22.525Z,68.30
2019-02-21T05:19:21.503Z,68.19
2019-02-21T05:20:22.493Z,68.61
2019-02-21T05:21:23.078Z,67.99
2019-02-21T05:22:22.471Z,68.30
2019-02-21T05:23:22.463Z,68.19
2019-02-21T05:24:21.483Z,68.30
2019-02-21T05:25:22.460Z,68.51
2019-02-21T05:26:21.425Z,68.19
2019-02-21T05:27:22.415Z,68.30
2019-02-21T05:28:21.436Z,67.75
2019-02-21T05:29:21.397Z,67.75
2019-02-21T05:30:21.379Z,67.85
2019-02-21T05:31:22.375Z,67.13
2019-02-21T05:32:22.362Z,66.20
2019-02-21T05:33:21.357Z,67.16
2019-02-21T05:34:22.365Z,67.34
2019-02-21T05:35:22.329Z,67.13
2019-02-21T05:36:21.365Z,66.82
2019-02-21T05:37:21.306Z,66.41
2019-02-21T05:38:22.295Z,65.79
2019-02-21T05:39:24.071Z,66.20
2019-02-21T05:40:25.079Z,66.30
2019-02-21T05:41:22.259Z,66.00
2019-02-21T05:42:22.251Z,65.89
2019-02-21T05:43:21.246Z,66.20
2019-02-21T05:44:22.249Z,66.00
2019-02-21T05:45:22.230Z,66.48
2019-02-21T05:46:21.249Z,65.55
2019-02-21T05:47:22.190Z,65.27
2019-02-21T05:48:25.068Z,65.86
2019-02-21T05:49:22.072Z,65.58
2019-02-21T05:50:22.174Z,65.76
2019-02-21T05:51:22.158Z,66.07
2019-02-21T05:52:21.143Z,65.34
2019-02-21T05:53:22.131Z,65.55
2019-02-21T05:54:22.119Z,65.97
2019-02-21T05:55:22.129Z,65.34
2019-02-21T05:56:22.095Z,65.97
2019-02-21T05:57:21.087Z,66.48
2019-02-21T05:58:22.076Z,66.38
2019-02-21T05:59:22.081Z,67.00
2019-02-21T06:00:22.616Z,67.30
2019-02-21T06:01:24.569Z,67.21
2019-02-21T06:02:22.042Z,67.72
2019-02-21T06:03:22.019Z,67.75
2019-02-21T06:04:21.006Z,66.48
2019-02-21T06:05:24.571Z,67.72
2019-02-21T06:06:21.006Z,67.24
2019-02-21T06:07:21.975Z,67.72
2019-02-21T06:08:22.001Z,67.34
2019-02-21T06:09:20.953Z,66.82
2019-02-21T06:10:20.942Z,67.54
2019-02-21T06:11:21.929Z,67.65
2019-02-21T06:12:33.201Z,67.85
2019-02-21T06:13:21.914Z,67.85
2019-02-21T06:14:22.021Z,67.75
2019-02-21T06:15:20.891Z,67.85
2019-02-21T06:16:21.884Z,67.24
2019-02-21T06:17:21.858Z,67.13
2019-02-21T06:18:21.887Z,67.13
2019-02-21T06:19:21.843Z,67.13
2019-02-21T06:20:20.858Z,67.24
2019-02-21T06:21:21.821Z,67.21
2019-02-21T06:22:24.561Z,67.72
2019-02-21T06:23:24.970Z,67.41
2019-02-21T06:24:23.557Z,67.41
2019-02-21T06:25:21.782Z,67.51
2019-02-21T06:26:21.766Z,68.24
2019-02-21T06:29:22.580Z,67.10
2019-02-21T06:30:21.729Z,67.82
2019-02-21T06:31:20.708Z,67.61
2019-02-21T06:32:21.726Z,67.82
2019-02-21T06:33:21.690Z,67.72
2019-02-21T06:34:21.674Z,67.10
2019-02-21T06:35:21.665Z,67.00
2019-02-21T06:36:21.679Z,66.58
2019-02-21T06:37:21.644Z,67.30
2019-02-21T06:38:21.631Z,66.55
2019-02-21T06:39:20.655Z,67.58
2019-02-21T06:40:21.614Z,67.07
2019-02-21T06:41:21.603Z,67.41
2019-02-21T06:42:21.585Z,66.97
2019-02-21T06:43:21.583Z,67.17
2019-02-21T06:44:20.604Z,67.07
2019-02-21T06:45:21.560Z,67.07
2019-02-21T06:46:21.544Z,66.35
2019-02-21T06:47:21.547Z,66.76
2019-02-21T06:48:21.523Z,67.48
2019-02-21T06:49:20.541Z,67.48
2019-02-21T06:50:26.964Z,66.86
2019-02-21T06:51:21.510Z,67.79
2019-02-21T06:52:21.474Z,66.86
2019-02-21T06:53:20.469Z,67.38
2019-02-21T06:54:22.488Z,66.86
2019-02-21T06:55:21.448Z,66.55
2019-02-21T06:56:21.434Z,66.66
2019-02-21T06:57:21.423Z,66.66
2019-02-21T06:58:21.410Z,66.97
2019-02-21T06:59:23.650Z,66.52
2019-02-21T07:00:21.392Z,66.76
2019-02-21T07:01:28.152Z,66.66
2019-02-21T07:02:21.365Z,66.14
2019-02-21T07:03:21.375Z,66.94
2019-02-21T07:04:21.349Z,66.66
2019-02-21T07:05:21.364Z,66.04
2019-02-21T07:06:31.065Z,67.58
2019-02-21T07:07:21.324Z,67.48
2019-02-21T07:08:21.309Z,67.17
2019-02-21T07:09:21.295Z,67.07
2019-02-21T07:10:21.282Z,66.66
2019-02-21T07:11:20.322Z,65.94
2019-02-21T07:12:21.263Z,66.76
2019-02-21T07:13:26.777Z,66.55
2019-02-21T07:14:21.233Z,66.45
2019-02-21T07:15:21.229Z,66.55
2019-02-21T07:16:21.239Z,66.52
2019-02-21T07:17:21.209Z,66.76
2019-02-21T07:18:20.193Z,66.73
2019-02-21T07:19:20.248Z,66.63
2019-02-21T07:20:20.171Z,67.14
2019-02-21T07:21:21.159Z,66.52
2019-02-21T07:22:22.347Z,66.86
2019-02-21T07:23:21.144Z,66.42
2019-02-21T07:24:21.157Z,67.35
2019-02-21T07:25:21.116Z,66.52
2019-02-21T07:26:20.106Z,66.31
2019-02-21T07:27:21.096Z,66.52
2019-02-21T07:28:21.083Z,66.63
2019-02-21T07:29:21.104Z,66.42
2019-02-21T07:30:23.082Z,66.63
2019-02-21T07:31:28.810Z,66.42
2019-02-21T07:32:21.087Z,66.73
2019-02-21T07:33:28.465Z,66.73
2019-02-21T07:34:21.065Z,66.21
2019-02-21T07:35:21.008Z,66.39
2019-02-21T07:36:21.001Z,65.98
2019-02-21T07:37:21.059Z,66.08
2019-02-21T07:38:20.977Z,65.98
2019-02-21T07:39:21.584Z,65.98
2019-02-21T07:40:20.956Z,65.98
2019-02-21T07:41:19.968Z,65.15
2019-02-21T07:42:20.968Z,66.39
2019-02-21T07:43:20.933Z,65.88
2019-02-21T07:44:19.912Z,65.53
2019-02-21T07:45:20.921Z,65.95
2019-02-21T07:46:23.647Z,65.05
2019-02-21T07:47:20.877Z,65.02
2019-02-21T07:48:20.865Z,65.12
2019-02-21T07:49:20.079Z,65.22
2019-02-21T07:50:23.536Z,65.64
2019-02-21T07:51:20.835Z,65.64
2019-02-21T07:52:20.831Z,65.43
2019-02-21T07:53:20.807Z,65.43
2019-02-21T07:54:19.799Z,65.33
2019-02-21T07:55:20.812Z,65.43
2019-02-21T07:56:20.781Z,65.64
2019-02-21T07:57:20.771Z,65.33
2019-02-21T07:58:19.750Z,65.22
2019-02-21T07:59:20.779Z,65.19
2019-02-21T08:00:20.763Z,65.09
2019-02-21T08:01:20.731Z,65.09
2019-02-21T08:02:21.106Z,65.09
2019-02-21T08:03:29.895Z,64.99
2019-02-21T08:04:20.712Z,64.99
2019-02-21T08:05:20.690Z,65.19
2019-02-21T08:06:20.669Z,65.09
2019-02-21T08:07:20.653Z,65.09
2019-02-21T08:08:23.531Z,64.99
2019-02-21T08:09:21.077Z,64.17
2019-02-21T08:10:30.526Z,64.37
2019-02-21T08:11:20.613Z,63.96
2019-02-21T08:12:19.609Z,64.37
2019-02-21T08:13:20.595Z,64.54
2019-02-21T08:14:20.611Z,63.96
2019-02-21T08:15:20.600Z,64.27
2019-02-21T08:16:20.557Z,63.93
2019-02-21T08:17:20.544Z,64.03
2019-02-21T08:18:20.539Z,64.03
2019-02-21T08:19:20.561Z,63.93
2019-02-21T08:20:19.547Z,63.93
2019-02-21T08:21:20.497Z,64.11
2019-02-21T08:22:20.483Z,63.90
2019-02-21T08:23:20.490Z,64.00
2019-02-21T08:24:20.496Z,63.49
2019-02-21T08:25:20.452Z,63.90
2019-02-21T08:26:20.449Z,63.28
2019-02-21T08:27:19.434Z,63.67
2019-02-21T08:28:20.424Z,62.33
2019-02-21T08:29:20.863Z,63.15
2019-02-21T08:30:20.434Z,63.15
2019-02-21T08:31:20.400Z,63.35
2019-02-21T08:32:20.635Z,63.15
2019-02-21T08:33:20.363Z,63.25
2019-02-21T08:34:20.358Z,63.22
2019-02-21T08:35:20.375Z,62.19
2019-02-21T08:36:20.333Z,62.92
2019-02-21T08:37:20.353Z,63.02
2019-02-21T08:38:20.311Z,63.02
2019-02-21T08:39:20.300Z,62.60
2019-02-21T08:40:25.015Z,62.48
2019-02-21T08:41:19.277Z,62.58
2019-02-21T08:42:20.313Z,61.42
2019-02-21T08:43:20.252Z,61.32
2019-02-21T08:44:20.247Z,61.32
2019-02-21T08:45:20.236Z,61.32
2019-02-21T08:46:20.224Z,60.91
2019-02-21T08:47:20.207Z,61.21
2019-02-21T08:48:20.275Z,60.57
2019-02-21T08:49:19.201Z,60.77
2019-02-21T08:50:22.338Z,60.77
2019-02-21T08:51:19.172Z,60.47
2019-02-21T08:52:20.191Z,60.47
2019-02-21T08:53:19.146Z,60.16
2019-02-21T08:54:19.134Z,60.47
2019-02-21T08:55:19.127Z,60.26
2019-02-21T08:56:20.141Z,60.26
2019-02-21T08:57:21.451Z,60.57
2019-02-21T08:58:19.099Z,60.36
2019-02-21T08:59:20.074Z,59.95
2019-02-21T09:00:19.063Z,60.05
2019-02-21T09:01:20.052Z,60.57
2019-02-21T09:02:19.079Z,60.36
2019-02-21T09:03:19.036Z,59.85
2019-02-21T09:04:27.431Z,60.26
2019-02-21T09:05:20.006Z,60.67
2019-02-21T09:06:19.998Z,60.67
2019-02-21T09:07:20.019Z,60.26
2019-02-21T09:08:19.998Z,60.16
2019-02-21T09:09:19.374Z,59.82
2019-02-21T09:10:19.950Z,60.33
2019-02-21T09:11:19.954Z,60.23
2019-02-21T09:12:19.940Z,60.44
2019-02-21T09:13:19.947Z,60.44
2019-02-21T09:14:19.906Z,59.92
2019-02-21T09:15:19.974Z,60.13
2019-02-21T09:16:19.887Z,60.00
2019-02-21T09:17:19.875Z,59.38
2019-02-21T09:18:19.859Z,59.59
2019-02-21T09:19:19.854Z,60.10
2019-02-21T09:20:18.849Z,59.46
2019-02-21T09:21:18.863Z,59.05
2019-02-21T09:22:18.815Z,58.54
2019-02-21T09:23:18.804Z,58.74
2019-02-21T09:24:37.520Z,59.46
2019-02-21T09:25:19.809Z,59.46
2019-02-21T09:26:21.331Z,59.56
2019-02-21T09:27:19.773Z,59.56
2019-02-21T09:28:22.518Z,58.84
2019-02-21T09:29:18.744Z,58.92
2019-02-21T09:30:19.750Z,58.92
2019-02-21T09:31:19.727Z,58.84
2019-02-21T09:32:19.721Z,59.43
2019-02-21T09:33:21.330Z,58.20
2019-02-21T09:34:21.464Z,58.40
2019-02-21T09:35:18.715Z,59.12
2019-02-21T09:36:19.661Z,59.12
2019-02-21T09:37:19.653Z,58.40
2019-02-21T09:38:19.635Z,58.40
2019-02-21T09:39:19.716Z,58.20
2019-02-21T09:40:19.652Z,57.59
2019-02-21T09:41:19.616Z,58.40
2019-02-21T09:42:19.586Z,57.89
2019-02-21T09:43:19.585Z,57.69
2019-02-21T09:44:19.585Z,58.51
2019-02-21T09:45:18.596Z,57.97
2019-02-21T09:46:19.552Z,57.69
2019-02-21T09:47:19.535Z,58.00
2019-02-21T09:48:19.522Z,57.76
2019-02-21T09:49:19.526Z,58.10
2019-02-21T09:50:19.533Z,57.89
2019-02-21T09:51:18.502Z,58.20
2019-02-21T09:52:19.489Z,57.79
2019-02-21T09:53:19.484Z,57.79
2019-02-21T09:54:19.177Z,57.48
2019-02-21T09:55:19.497Z,57.59
2019-02-21T09:56:29.512Z,57.28
2019-02-21T09:57:19.435Z,57.66
2019-02-21T09:58:19.416Z,57.38
2019-02-21T09:59:19.404Z,57.87
2019-02-21T10:00:19.430Z,57.76
2019-02-21T10:01:19.385Z,57.87
2019-02-21T10:02:19.371Z,57.87
2019-02-21T10:03:19.362Z,58.10
2019-02-21T10:04:19.349Z,57.25
2019-02-21T10:05:19.370Z,57.25
2019-02-21T10:06:18.324Z,56.84
2019-02-21T10:07:19.316Z,56.74
2019-02-21T10:08:21.749Z,56.84
2019-02-21T10:09:18.301Z,57.87
2019-02-21T10:10:19.279Z,57.25
2019-02-21T10:11:18.344Z,57.02
2019-02-21T10:12:19.264Z,57.12
2019-02-21T10:13:19.250Z,56.71
2019-02-21T10:14:21.996Z,57.12
2019-02-21T10:15:19.229Z,57.23
2019-02-21T10:16:19.245Z,56.92
2019-02-21T10:17:18.199Z,57.02
2019-02-21T10:18:19.194Z,56.92
2019-02-21T10:19:18.173Z,57.23
2019-02-21T10:20:20.993Z,57.12
2019-02-21T10:21:18.167Z,57.64
2019-02-21T10:22:19.995Z,57.12
2019-02-21T10:23:19.137Z,57.23
2019-02-21T10:24:19.133Z,57.12
2019-02-21T10:25:19.108Z,57.25
2019-02-21T10:26:19.112Z,57.05
2019-02-21T10:27:19.107Z,56.82
2019-02-21T10:28:19.188Z,57.25
2019-02-21T10:29:19.069Z,57.46
2019-02-21T10:30:19.116Z,57.56
2019-02-21T10:31:18.055Z,57.56
2019-02-21T10:32:19.039Z,57.56
2019-02-21T10:33:19.028Z,57.56
2019-02-21T10:34:21.687Z,57.66
2019-02-21T10:35:19.006Z,57.76
2019-02-21T10:36:19.042Z,57.84
2019-02-21T10:37:18.984Z,57.84
2019-02-21T10:38:18.966Z,57.84
2019-02-21T10:39:18.964Z,57.84
2019-02-21T10:40:17.998Z,56.92
2019-02-21T10:41:18.951Z,57.25
2019-02-21T10:42:19.054Z,56.82
2019-02-21T10:43:17.927Z,56.82
2019-02-21T10:44:18.906Z,57.53
2019-02-21T10:45:17.899Z,56.92
2019-02-21T10:46:18.883Z,57.12
2019-02-21T10:47:18.870Z,57.23
2019-02-21T10:48:18.903Z,57.15
2019-02-21T10:49:17.852Z,57.15
2019-02-21T10:50:18.851Z,56.95
2019-02-21T10:51:18.832Z,57.35
2019-02-21T10:52:18.828Z,56.84
2019-02-21T10:53:18.808Z,57.46
2019-02-21T10:54:18.835Z,57.87
2019-02-21T10:55:18.786Z,58.07
2019-02-21T10:56:32.275Z,57.97
2019-02-21T10:57:18.766Z,58.48
2019-02-21T10:58:18.753Z,59.00
2019-02-21T10:59:18.748Z,60.33
2019-02-21T11:00:18.725Z,62.17
2019-02-21T11:01:18.748Z,62.81
2019-02-21T11:02:18.748Z,63.43
2019-02-21T11:03:18.699Z,63.73
2019-02-21T11:04:18.685Z,64.79
2019-02-21T11:05:18.686Z,66.33
2019-02-21T11:06:18.693Z,64.17
2019-02-21T11:07:18.650Z,68.68
2019-02-21T11:08:18.653Z,67.76
2019-02-21T11:09:18.627Z,67.59
2019-02-21T11:10:19.138Z,67.79
2019-02-21T11:11:18.632Z,69.54
2019-02-21T11:12:18.592Z,71.83
2019-02-21T11:13:18.597Z,70.39
2019-02-21T11:14:17.569Z,73.57
2019-02-21T11:15:18.560Z,72.65
2019-02-21T11:16:18.592Z,73.81
2019-02-21T11:17:17.542Z,73.91
2019-02-21T11:18:18.752Z,73.40
2019-02-21T11:19:17.518Z,72.99
2019-02-21T11:20:18.499Z,71.42
2019-02-21T11:21:18.501Z,72.75
2019-02-21T11:22:18.523Z,71.72
2019-02-21T11:23:18.471Z,72.61
2019-02-21T11:24:18.458Z,68.75
2019-02-21T11:25:17.445Z,67.93
2019-02-21T11:26:17.464Z,68.44
2019-02-21T11:27:18.425Z,68.54
2019-02-21T11:28:17.422Z,68.21
2019-02-21T11:29:18.404Z,68.10
2019-02-21T11:30:18.390Z,68.30
2019-02-21T11:31:17.415Z,68.00
2019-02-21T11:32:18.374Z,68.10
2019-02-21T11:33:17.380Z,68.41
2019-02-21T11:34:18.357Z,69.64
2019-02-21T11:35:18.340Z,69.84
2019-02-21T11:36:18.389Z,66.16
2019-02-21T11:37:18.305Z,66.16
2019-02-21T11:38:18.306Z,66.74
2019-02-21T11:39:18.294Z,66.63
2019-02-21T11:40:18.976Z,65.81
2019-02-21T11:41:18.272Z,65.30
2019-02-21T11:42:18.288Z,66.12
2019-02-21T11:43:18.246Z,66.43
2019-02-21T11:44:18.233Z,64.69
2019-02-21T11:45:17.236Z,64.79
2019-02-21T11:46:18.283Z,65.81
2019-02-21T11:47:18.200Z,65.20
2019-02-21T11:48:18.193Z,65.30
2019-02-21T11:49:18.181Z,64.79
2019-02-21T11:50:17.187Z,64.79
2019-02-21T11:51:17.186Z,65.27
2019-02-21T11:52:18.161Z,65.58
2019-02-21T11:53:18.135Z,64.65
2019-02-21T11:54:26.502Z,64.86
2019-02-21T11:55:18.114Z,63.40
2019-02-21T11:56:18.142Z,64.12
2019-02-21T11:57:17.095Z,63.29
2019-02-21T11:58:18.081Z,63.91
2019-02-21T11:59:18.067Z,61.96
2019-02-21T12:00:17.071Z,62.78
2019-02-21T12:01:18.045Z,62.99
2019-02-21T12:02:18.215Z,63.09
2019-02-21T12:03:18.027Z,63.09
2019-02-21T12:04:17.020Z,64.18
2019-02-21T12:05:17.967Z,63.20
2019-02-21T12:06:18.025Z,63.50
2019-02-21T12:07:16.989Z,62.99
2019-02-21T12:08:17.977Z,63.78
2019-02-21T12:09:17.942Z,62.27
2019-02-21T12:10:16.964Z,63.20
2019-02-21T12:11:17.027Z,63.98
2019-02-21T12:12:16.925Z,63.20
2019-02-21T12:13:17.460Z,63.37
2019-02-21T12:14:16.906Z,62.55
2019-02-21T12:15:17.885Z,62.24
2019-02-21T12:16:17.911Z,62.65
2019-02-21T12:17:17.883Z,61.93
2019-02-21T12:18:16.859Z,62.45
2019-02-21T12:19:17.855Z,62.85
2019-02-21T12:20:17.869Z,62.14
2019-02-21T12:21:17.851Z,61.43
2019-02-21T12:22:17.814Z,61.22
2019-02-21T12:23:17.756Z,61.11
2019-02-21T12:24:18.460Z,62.24
2019-02-21T12:25:17.848Z,60.91
2019-02-21T12:26:17.815Z,61.19
2019-02-21T12:27:17.767Z,61.40
2019-02-21T12:28:17.749Z,60.99
2019-02-21T12:29:17.733Z,61.91
2019-02-21T12:30:17.741Z,60.68
2019-02-21T12:31:17.742Z,59.94
2019-02-21T12:32:16.736Z,60.24
2019-02-21T12:33:17.687Z,60.24
2019-02-21T12:34:16.674Z,59.53
2019-02-21T12:35:28.802Z,60.24
2019-02-21T12:36:17.691Z,60.24
2019-02-21T12:37:20.460Z,59.22
2019-02-21T12:38:17.632Z,60.44
2019-02-21T12:39:17.625Z,59.32
2019-02-21T12:40:17.608Z,59.53
2019-02-21T12:41:17.679Z,59.22
2019-02-21T12:42:17.634Z,59.63
2019-02-21T12:43:17.597Z,58.70
2019-02-21T12:44:16.572Z,58.91
2019-02-21T12:45:16.576Z,58.58
2019-02-21T12:46:17.562Z,58.98
2019-02-21T12:47:17.538Z,58.68
2019-02-21T12:48:16.567Z,59.39
2019-02-21T12:49:18.659Z,58.68
2019-02-21T12:50:16.505Z,57.73
2019-02-21T12:51:17.510Z,57.97
2019-02-21T12:52:16.472Z,57.15
2019-02-21T12:53:19.953Z,57.76
2019-02-21T12:54:17.487Z,57.66
2019-02-21T12:55:27.320Z,57.97
2019-02-21T12:56:17.440Z,57.15
2019-02-21T12:57:17.422Z,57.66
2019-02-21T12:58:17.447Z,57.45
2019-02-21T12:59:17.400Z,57.25